createdAt,value
2017-07-06T00:00:07.188Z,15.9
2017-07-06T00:00:28.114Z,15.9
2017-07-06T00:00:48.383Z,16
2017-07-06T00:01:08.694Z,16
2017-07-06T00:01:28.952Z,15.9
2017-07-06T00:01:49.265Z,16
2017-07-06T00:02:10.532Z,16
2017-07-06T00:02:30.844Z,16
2017-07-06T00:02:53.130Z,15.9
2017-07-06T00:03:13.458Z,16
2017-07-06T00:03:33.757Z,15.9
2017-07-06T00:03:54.065Z,15.9
2017-07-06T00:04:14.412Z,15.9
2017-07-06T00:04:34.668Z,15.9
2017-07-06T00:04:55.004Z,15.9
2017-07-06T00:05:15.271Z,15.9
2017-07-06T00:05:35.531Z,15.9
2017-07-06T00:05:55.799Z,15.9
2017-07-06T00:06:16.062Z,16
2017-07-06T00:06:37.051Z,15.9
2017-07-06T00:06:57.415Z,16
2017-07-06T00:07:18.484Z,15.9
2017-07-06T00:07:38.765Z,15.9
2017-07-06T00:07:59.036Z,16
2017-07-06T00:08:19.374Z,15.9
2017-07-06T00:08:39.644Z,15.9
2017-07-06T00:08:59.943Z,15.9
2017-07-06T00:09:20.258Z,16
2017-07-06T00:09:41.580Z,15.9
2017-07-06T00:10:01.834Z,15.9
2017-07-06T00:10:22.106Z,15.9
2017-07-06T00:10:42.367Z,15.9
2017-07-06T00:11:02.683Z,15.9
2017-07-06T00:11:22.933Z,15.9
2017-07-06T00:11:43.293Z,15.8
2017-07-06T00:12:03.599Z,15.8
2017-07-06T00:12:23.872Z,15.8
2017-07-06T00:12:44.185Z,15.8
2017-07-06T00:13:04.432Z,15.7
2017-07-06T00:13:24.766Z,15.8
2017-07-06T00:13:45.024Z,15.8
2017-07-06T00:14:05.273Z,15.8
2017-07-06T00:14:25.585Z,15.7
2017-07-06T00:14:45.847Z,15.8
2017-07-06T00:15:07.107Z,15.8
2017-07-06T00:15:27.370Z,15.7
2017-07-06T00:15:47.709Z,15.7
2017-07-06T00:16:07.975Z,15.7
2017-07-06T00:16:29.043Z,15.7
2017-07-06T00:16:50.120Z,15.7
2017-07-06T00:17:10.417Z,15.7
2017-07-06T00:17:30.676Z,15.8
2017-07-06T00:17:50.947Z,15.7
2017-07-06T00:18:11.292Z,15.7
2017-07-06T00:18:31.595Z,15.7
2017-07-06T00:18:51.867Z,15.7
2017-07-06T00:19:12.206Z,15.7
2017-07-06T00:19:32.472Z,15.7
2017-07-06T00:19:53.595Z,15.8
2017-07-06T00:20:13.874Z,15.7
2017-07-06T00:20:34.178Z,15.7
2017-07-06T00:20:55.116Z,15.7
2017-07-06T00:21:15.533Z,15.7
2017-07-06T00:21:35.808Z,15.7
2017-07-06T00:21:56.103Z,15.8
2017-07-06T00:22:16.366Z,15.7
2017-07-06T00:22:36.699Z,15.7
2017-07-06T00:22:56.960Z,15.7
2017-07-06T00:23:17.204Z,15.7
2017-07-06T00:23:37.468Z,15.8
2017-07-06T00:23:57.789Z,15.8
2017-07-06T00:24:18.166Z,15.7
2017-07-06T00:24:38.448Z,15.7
2017-07-06T00:24:58.713Z,15.7
2017-07-06T00:25:19.013Z,15.7
2017-07-06T00:25:39.363Z,15.7
2017-07-06T00:25:59.422Z,15.7
2017-07-06T00:26:19.726Z,15.7
2017-07-06T00:26:40.991Z,15.6
2017-07-06T00:27:01.993Z,15.6
2017-07-06T00:27:23.089Z,15.6
2017-07-06T00:27:43.396Z,15.6
2017-07-06T00:28:03.658Z,15.6
2017-07-06T00:28:23.919Z,15.5
2017-07-06T00:28:44.220Z,15.6
2017-07-06T00:29:05.095Z,15.6
2017-07-06T00:29:25.355Z,15.5
2017-07-06T00:29:45.663Z,15.5
2017-07-06T00:30:05.979Z,15.5
2017-07-06T00:30:26.237Z,15.5
2017-07-06T00:30:46.534Z,15.6
2017-07-06T00:31:06.906Z,15.5
2017-07-06T00:31:27.168Z,15.5
2017-07-06T00:31:47.437Z,15.5
2017-07-06T00:32:09.078Z,15.6
2017-07-06T00:32:29.339Z,15.5
2017-07-06T00:32:49.628Z,15.4
2017-07-06T00:33:09.887Z,15.5
2017-07-06T00:33:30.143Z,15.5
2017-07-06T00:33:50.418Z,15.5
2017-07-06T00:34:10.688Z,15.5
2017-07-06T00:34:30.942Z,15.4
2017-07-06T00:34:51.199Z,15.5
2017-07-06T00:35:11.518Z,15.4
2017-07-06T00:35:31.793Z,15.4
2017-07-06T00:35:52.138Z,15.4
2017-07-06T00:36:12.402Z,15.5
2017-07-06T00:36:32.672Z,15.4
2017-07-06T00:36:52.988Z,15.5
2017-07-06T00:37:13.253Z,15.5
2017-07-06T00:37:33.520Z,15.5
2017-07-06T00:37:53.773Z,15.5
2017-07-06T00:38:14.085Z,15.3
2017-07-06T00:38:34.396Z,15.3
2017-07-06T00:38:54.698Z,15.3
2017-07-06T00:39:14.973Z,15.3
2017-07-06T00:39:35.241Z,15.3
2017-07-06T00:39:55.519Z,15.3
2017-07-06T00:40:15.823Z,15.3
2017-07-06T00:40:36.075Z,15.3
2017-07-06T00:40:57.129Z,15.4
2017-07-06T00:41:17.396Z,15.4
2017-07-06T00:41:37.699Z,15.3
2017-07-06T00:41:58.932Z,15.3
2017-07-06T00:42:20.028Z,15.4
2017-07-06T00:42:40.329Z,15.3
2017-07-06T00:43:00.647Z,15.3
2017-07-06T00:43:20.981Z,15.3
2017-07-06T00:43:41.064Z,15.3
2017-07-06T00:44:01.363Z,15.4
2017-07-06T00:44:21.619Z,15.3
2017-07-06T00:44:41.897Z,15.3
2017-07-06T00:45:02.192Z,15.3
2017-07-06T00:45:22.498Z,15.3
2017-07-06T00:45:43.594Z,15.3
2017-07-06T00:46:04.634Z,15.4
2017-07-06T00:46:24.887Z,15.3
2017-07-06T00:46:45.156Z,15.3
2017-07-06T00:47:05.475Z,15.3
2017-07-06T00:47:25.742Z,15.3
2017-07-06T00:47:46.004Z,15.2
2017-07-06T00:48:06.306Z,15.2
2017-07-06T00:48:26.713Z,15.1
2017-07-06T00:48:46.979Z,15.2
2017-07-06T00:49:07.309Z,15.2
2017-07-06T00:49:27.587Z,15.2
2017-07-06T00:49:47.881Z,15.2
2017-07-06T00:50:09.105Z,15.2
2017-07-06T00:50:29.984Z,15.1
2017-07-06T00:50:50.054Z,15.2
2017-07-06T00:51:10.357Z,15.2
2017-07-06T00:51:30.709Z,15.2
2017-07-06T00:51:50.984Z,15.2
2017-07-06T00:52:11.252Z,15.1
2017-07-06T00:52:31.524Z,15.2
2017-07-06T00:52:51.850Z,15.2
2017-07-06T00:53:13.123Z,15.1
2017-07-06T00:53:33.397Z,15.1
2017-07-06T00:53:53.648Z,15.1
2017-07-06T00:54:13.949Z,15.1
2017-07-06T00:54:34.247Z,15.1
2017-07-06T00:54:54.504Z,15.1
2017-07-06T00:55:14.810Z,15.2
2017-07-06T00:55:35.068Z,15.1
2017-07-06T00:55:55.088Z,15.1
2017-07-06T00:56:15.443Z,15.1
2017-07-06T00:56:36.626Z,15.1
2017-07-06T00:56:56.888Z,15.1
2017-07-06T00:57:17.185Z,15.1
2017-07-06T00:57:38.019Z,15.1
2017-07-06T00:57:58.337Z,15
2017-07-06T00:58:18.601Z,15
2017-07-06T00:58:39.498Z,15
2017-07-06T00:58:59.771Z,15.1
2017-07-06T00:59:20.099Z,14.9
2017-07-06T00:59:40.424Z,15
2017-07-06T01:00:00.672Z,15
2017-07-06T01:00:20.929Z,15
2017-07-06T01:00:41.251Z,15
2017-07-06T01:01:01.551Z,14.9
2017-07-06T01:01:22.620Z,15
2017-07-06T01:01:42.934Z,15
2017-07-06T01:02:03.200Z,15
2017-07-06T01:02:23.474Z,14.9
2017-07-06T01:02:43.747Z,14.9
2017-07-06T01:03:04.021Z,14.9
2017-07-06T01:03:24.347Z,14.9
2017-07-06T01:03:44.606Z,14.9
2017-07-06T01:04:04.967Z,15
2017-07-06T01:04:25.267Z,14.9
2017-07-06T01:04:45.528Z,14.9
2017-07-06T01:05:05.784Z,14.9
2017-07-06T01:05:26.055Z,14.9
2017-07-06T01:05:46.328Z,14.8
2017-07-06T01:06:06.603Z,14.8
2017-07-06T01:06:26.874Z,14.9
2017-07-06T01:06:47.184Z,14.9
2017-07-06T01:07:07.529Z,14.8
2017-07-06T01:07:27.804Z,14.9
2017-07-06T01:07:48.071Z,14.7
2017-07-06T01:08:08.352Z,14.9
2017-07-06T01:08:28.610Z,14.8
2017-07-06T01:08:48.906Z,14.9
2017-07-06T01:09:09.183Z,14.8
2017-07-06T01:09:29.480Z,14.8
2017-07-06T01:09:49.740Z,14.8
2017-07-06T01:10:10.065Z,14.8
2017-07-06T01:10:30.322Z,14.7
2017-07-06T01:10:50.630Z,14.8
2017-07-06T01:11:10.973Z,14.8
2017-07-06T01:11:31.256Z,14.9
2017-07-06T01:11:51.523Z,14.8
2017-07-06T01:12:12.542Z,14.8
2017-07-06T01:12:32.850Z,14.8
2017-07-06T01:12:53.111Z,14.9
2017-07-06T01:13:13.376Z,14.9
2017-07-06T01:13:34.536Z,14.8
2017-07-06T01:13:54.797Z,14.8
2017-07-06T01:14:15.600Z,15
2017-07-06T01:14:35.912Z,14.9
2017-07-06T01:14:56.228Z,14.9
2017-07-06T01:15:16.605Z,14.9
2017-07-06T01:15:36.859Z,14.9
2017-07-06T01:15:58.006Z,14.9
2017-07-06T01:16:18.306Z,14.9
2017-07-06T01:16:38.618Z,14.9
2017-07-06T01:16:58.895Z,14.9
2017-07-06T01:17:19.205Z,14.9
2017-07-06T01:17:39.469Z,14.9
2017-07-06T01:17:59.731Z,14.9
2017-07-06T01:18:20.036Z,14.8
2017-07-06T01:18:40.320Z,14.9
2017-07-06T01:19:00.583Z,14.8
2017-07-06T01:19:20.911Z,14.9
2017-07-06T01:19:41.220Z,14.9
2017-07-06T01:20:01.483Z,15
2017-07-06T01:20:21.756Z,14.7
2017-07-06T01:20:42.015Z,14.8
2017-07-06T01:21:02.324Z,14.7
2017-07-06T01:21:22.576Z,14.8
2017-07-06T01:21:43.629Z,14.8
2017-07-06T01:22:03.893Z,14.8
2017-07-06T01:22:24.192Z,14.8
2017-07-06T01:22:44.531Z,14.7
2017-07-06T01:23:04.790Z,14.7
2017-07-06T01:23:25.050Z,14.8
2017-07-06T01:23:45.321Z,14.7
2017-07-06T01:24:05.666Z,14.8
2017-07-06T01:24:25.939Z,14.7
2017-07-06T01:24:46.188Z,14.8
2017-07-06T01:25:06.460Z,14.6
2017-07-06T01:25:27.636Z,14.8
2017-07-06T01:25:48.608Z,14.6
2017-07-06T01:26:08.974Z,14.6
2017-07-06T01:26:29.248Z,14.7
2017-07-06T01:26:49.552Z,14.7
2017-07-06T01:27:09.824Z,14.6
2017-07-06T01:27:30.176Z,14.7
2017-07-06T01:27:50.442Z,14.6
2017-07-06T01:28:11.630Z,14.7
2017-07-06T01:28:32.631Z,14.6
2017-07-06T01:28:52.907Z,14.6
2017-07-06T01:29:13.197Z,14.7
2017-07-06T01:29:33.508Z,14.7
2017-07-06T01:29:53.787Z,14.6
2017-07-06T01:30:14.042Z,14.6
2017-07-06T01:30:34.314Z,14.6
2017-07-06T01:30:57.120Z,14.6
2017-07-06T01:31:17.477Z,14.7
2017-07-06T01:31:37.782Z,14.7
2017-07-06T01:31:58.042Z,14.8
2017-07-06T01:32:18.304Z,14.7
2017-07-06T01:32:38.652Z,14.7
2017-07-06T01:32:58.957Z,14.7
2017-07-06T01:33:19.225Z,14.7
2017-07-06T01:33:39.526Z,14.8
2017-07-06T01:33:59.791Z,14.8
2017-07-06T01:34:19.794Z,14.8
2017-07-06T01:34:40.172Z,14.7
2017-07-06T01:35:00.526Z,14.8
2017-07-06T01:35:21.652Z,14.7
2017-07-06T01:35:41.908Z,14.7
2017-07-06T01:36:02.172Z,14.6
2017-07-06T01:36:22.559Z,14.8
2017-07-06T01:36:42.819Z,14.7
2017-07-06T01:37:03.120Z,14.8
2017-07-06T01:37:23.503Z,14.6
2017-07-06T01:37:43.775Z,14.7
2017-07-06T01:38:04.994Z,14.6
2017-07-06T01:38:26.164Z,14.7
2017-07-06T01:38:46.487Z,14.7
2017-07-06T01:39:07.604Z,14.7
2017-07-06T01:39:27.862Z,14.6
2017-07-06T01:39:48.122Z,14.6
2017-07-06T01:40:08.433Z,14.6
2017-07-06T01:40:28.709Z,14.6
2017-07-06T01:40:49.077Z,14.6
2017-07-06T01:41:09.402Z,14.6
2017-07-06T01:41:29.710Z,14.5
2017-07-06T01:41:50.009Z,14.6
2017-07-06T01:42:10.285Z,14.6
2017-07-06T01:42:30.539Z,14.5
2017-07-06T01:42:50.797Z,14.6
2017-07-06T01:43:11.080Z,14.6
2017-07-06T01:43:31.480Z,14.6
2017-07-06T01:43:51.799Z,14.6
2017-07-06T01:44:12.054Z,14.6
2017-07-06T01:44:32.364Z,14.6
2017-07-06T01:44:52.624Z,14.6
2017-07-06T01:45:14.642Z,14.6
2017-07-06T01:45:34.891Z,14.6
2017-07-06T01:45:55.246Z,14.6
2017-07-06T01:46:15.534Z,14.6
2017-07-06T01:46:35.795Z,14.6
2017-07-06T01:46:56.068Z,14.6
2017-07-06T01:47:16.371Z,14.6
2017-07-06T01:47:36.662Z,14.6
2017-07-06T01:47:56.933Z,14.6
2017-07-06T01:48:18.140Z,14.6
2017-07-06T01:48:38.405Z,14.6
2017-07-06T01:48:58.683Z,14.6
2017-07-06T01:49:18.945Z,14.6
2017-07-06T01:49:39.222Z,14.6
2017-07-06T01:49:59.488Z,14.6
2017-07-06T01:50:20.529Z,14.6
2017-07-06T01:50:40.784Z,14.5
2017-07-06T01:51:01.056Z,14.6
2017-07-06T01:51:21.325Z,14.6
2017-07-06T01:51:42.123Z,14.6
2017-07-06T01:52:02.433Z,14.7
2017-07-06T01:52:22.738Z,14.7
2017-07-06T01:52:43.042Z,14.7
2017-07-06T01:53:03.011Z,14.7
2017-07-06T01:53:24.155Z,14.6
2017-07-06T01:53:44.460Z,14.7
2017-07-06T01:54:04.731Z,14.7
2017-07-06T01:54:25.655Z,14.7
2017-07-06T01:54:45.964Z,14.7
2017-07-06T01:55:06.228Z,14.7
2017-07-06T01:55:26.494Z,14.7
2017-07-06T01:55:46.750Z,14.6
2017-07-06T01:56:07.091Z,14.6
2017-07-06T01:56:27.391Z,14.7
2017-07-06T01:56:47.646Z,14.7
2017-07-06T01:57:07.952Z,14.7
2017-07-06T01:57:28.228Z,14.7
2017-07-06T01:57:48.493Z,14.7
2017-07-06T01:58:08.766Z,14.8
2017-07-06T01:58:30.127Z,14.8
2017-07-06T01:58:50.469Z,14.7
2017-07-06T01:59:10.783Z,14.7
2017-07-06T01:59:31.124Z,14.7
2017-07-06T01:59:51.415Z,14.8
2017-07-06T02:00:11.729Z,14.7
2017-07-06T02:00:32.070Z,14.7
2017-07-06T02:00:52.367Z,14.7
2017-07-06T02:01:12.635Z,14.7
2017-07-06T02:01:32.952Z,14.7
2017-07-06T02:01:53.226Z,14.7
2017-07-06T02:02:13.538Z,14.7
2017-07-06T02:02:34.650Z,14.7
2017-07-06T02:02:54.925Z,14.7
2017-07-06T02:03:15.279Z,14.7
2017-07-06T02:03:35.543Z,14.6
2017-07-06T02:03:55.800Z,14.7
2017-07-06T02:04:17.011Z,14.6
2017-07-06T02:04:38.096Z,14.6
2017-07-06T02:04:58.406Z,14.6
2017-07-06T02:05:18.654Z,14.7
2017-07-06T02:05:38.918Z,14.7
2017-07-06T02:05:59.222Z,14.6
2017-07-06T02:06:20.068Z,14.6
2017-07-06T02:06:40.982Z,14.7
2017-07-06T02:07:01.270Z,14.7
2017-07-06T02:07:21.626Z,14.6
2017-07-06T02:07:41.929Z,14.7
2017-07-06T02:08:02.198Z,14.7
2017-07-06T02:08:22.543Z,14.8
2017-07-06T02:08:42.817Z,14.7
2017-07-06T02:09:03.125Z,14.8
2017-07-06T02:09:23.408Z,14.7
2017-07-06T02:09:43.692Z,14.7
2017-07-06T02:10:03.945Z,14.7
2017-07-06T02:10:24.291Z,14.7
2017-07-06T02:10:44.553Z,14.8
2017-07-06T02:11:04.824Z,14.7
2017-07-06T02:11:26.056Z,14.7
2017-07-06T02:11:46.329Z,14.8
2017-07-06T02:12:06.582Z,14.7
2017-07-06T02:12:26.851Z,14.7
2017-07-06T02:12:47.143Z,14.7
2017-07-06T02:13:07.447Z,14.6
2017-07-06T02:13:29.138Z,14.7
2017-07-06T02:13:49.502Z,14.7
2017-07-06T02:14:10.669Z,14.7
2017-07-06T02:14:30.972Z,14.7
2017-07-06T02:14:51.233Z,14.7
2017-07-06T02:15:11.576Z,14.6
2017-07-06T02:15:31.565Z,14.6
2017-07-06T02:15:51.817Z,14.7
2017-07-06T02:16:12.115Z,14.6
2017-07-06T02:16:32.485Z,14.7
2017-07-06T02:16:52.754Z,14.6
2017-07-06T02:17:13.011Z,14.6
2017-07-06T02:17:33.305Z,14.6
2017-07-06T02:17:54.501Z,14.7
2017-07-06T02:18:14.763Z,14.6
2017-07-06T02:18:35.039Z,14.7
2017-07-06T02:18:56.163Z,14.6
2017-07-06T02:19:16.424Z,14.5
2017-07-06T02:19:36.722Z,14.6
2017-07-06T02:19:57.660Z,14.6
2017-07-06T02:20:18.649Z,14.5
2017-07-06T02:20:38.985Z,14.6
2017-07-06T02:20:59.277Z,14.6
2017-07-06T02:21:19.571Z,14.6
2017-07-06T02:21:39.909Z,14.6
2017-07-06T02:22:00.157Z,14.6
2017-07-06T02:22:20.467Z,14.6
2017-07-06T02:22:40.907Z,14.5
2017-07-06T02:23:01.236Z,14.6
2017-07-06T02:23:21.539Z,14.5
2017-07-06T02:23:41.806Z,14.5
2017-07-06T02:24:02.058Z,14.5
2017-07-06T02:24:22.317Z,14.6
2017-07-06T02:24:42.622Z,14.5
2017-07-06T02:25:02.977Z,14.5
2017-07-06T02:25:23.323Z,14.5
2017-07-06T02:25:44.512Z,14.5
2017-07-06T02:26:05.487Z,14.5
2017-07-06T02:26:25.747Z,14.5
2017-07-06T02:26:46.042Z,14.5
2017-07-06T02:27:07.015Z,14.5
2017-07-06T02:27:27.284Z,14.5
2017-07-06T02:27:48.541Z,14.5
2017-07-06T02:28:08.802Z,14.5
2017-07-06T02:28:29.077Z,14.5
2017-07-06T02:28:49.394Z,14.5
2017-07-06T02:29:09.712Z,14.5
2017-07-06T02:29:30.028Z,14.6
2017-07-06T02:29:50.282Z,14.5
2017-07-06T02:30:10.634Z,14.5
2017-07-06T02:30:30.910Z,14.5
2017-07-06T02:30:51.260Z,14.5
2017-07-06T02:31:11.604Z,14.5
2017-07-06T02:31:32.605Z,14.5
2017-07-06T02:31:52.871Z,14.5
2017-07-06T02:32:13.179Z,14.5
2017-07-06T02:32:33.517Z,14.5
2017-07-06T02:32:53.768Z,14.5
2017-07-06T02:33:14.043Z,14.5
2017-07-06T02:33:34.310Z,14.5
2017-07-06T02:33:54.580Z,14.5
2017-07-06T02:34:14.931Z,14.5
2017-07-06T02:34:35.248Z,14.5
2017-07-06T02:34:55.554Z,14.4
2017-07-06T02:35:15.821Z,14.5
2017-07-06T02:35:36.143Z,14.4
2017-07-06T02:35:56.397Z,14.4
2017-07-06T02:36:16.661Z,14.6
2017-07-06T02:36:36.964Z,14.5
2017-07-06T02:36:57.288Z,14.5
2017-07-06T02:37:17.546Z,14.5
2017-07-06T02:37:37.871Z,14.5
2017-07-06T02:37:58.218Z,14.5
2017-07-06T02:38:18.540Z,14.5
2017-07-06T02:38:38.809Z,14.5
2017-07-06T02:38:59.122Z,14.5
2017-07-06T02:39:19.375Z,14.5
2017-07-06T02:39:39.652Z,14.5
2017-07-06T02:39:59.922Z,14.6
2017-07-06T02:40:19.921Z,14.6
2017-07-06T02:40:40.222Z,14.5
2017-07-06T02:41:00.488Z,14.6
2017-07-06T02:41:20.805Z,14.5
2017-07-06T02:41:42.122Z,14.6
2017-07-06T02:42:02.431Z,14.5
2017-07-06T02:42:22.790Z,14.5
2017-07-06T02:42:43.051Z,14.6
2017-07-06T02:43:03.018Z,14.5
2017-07-06T02:43:23.328Z,14.5
2017-07-06T02:43:43.610Z,14.4
2017-07-06T02:44:03.896Z,14.5
2017-07-06T02:44:24.159Z,14.5
2017-07-06T02:44:44.480Z,14.5
2017-07-06T02:45:04.756Z,14.5
2017-07-06T02:45:25.014Z,14.5
2017-07-06T02:45:45.322Z,14.5
2017-07-06T02:46:05.621Z,14.4
2017-07-06T02:46:25.941Z,14.4
2017-07-06T02:46:46.220Z,14.5
2017-07-06T02:47:06.566Z,14.5
2017-07-06T02:47:26.846Z,14.5
2017-07-06T02:47:47.106Z,14.4
2017-07-06T02:48:07.355Z,14.5
2017-07-06T02:48:27.669Z,14.5
2017-07-06T02:48:47.930Z,14.6
2017-07-06T02:49:09.200Z,14.5
2017-07-06T02:49:29.507Z,14.5
2017-07-06T02:49:49.777Z,14.5
2017-07-06T02:50:10.050Z,14.5
2017-07-06T02:50:30.307Z,14.6
2017-07-06T02:50:50.563Z,14.6
2017-07-06T02:51:10.893Z,14.6
2017-07-06T02:51:31.162Z,14.5
2017-07-06T02:51:51.505Z,14.5
2017-07-06T02:52:11.864Z,14.5
2017-07-06T02:52:32.172Z,14.6
2017-07-06T02:52:52.448Z,14.4
2017-07-06T02:53:12.856Z,14.4
2017-07-06T02:53:33.143Z,14.4
2017-07-06T02:53:53.394Z,14.4
2017-07-06T02:54:13.674Z,14.4
2017-07-06T02:54:34.024Z,14.4
2017-07-06T02:54:54.284Z,14.3
2017-07-06T02:55:14.545Z,14.4
2017-07-06T02:55:34.846Z,14.4
2017-07-06T02:55:55.701Z,14.4
2017-07-06T02:56:15.980Z,14.5
2017-07-06T02:56:36.265Z,14.3
2017-07-06T02:56:56.605Z,14.5
2017-07-06T02:57:16.861Z,14.4
2017-07-06T02:57:37.180Z,14.5
2017-07-06T02:57:57.451Z,14.4
2017-07-06T02:58:17.772Z,14.4
2017-07-06T02:58:38.085Z,14.5
2017-07-06T02:58:58.367Z,14.4
2017-07-06T02:59:18.662Z,14.5
2017-07-06T02:59:38.929Z,14.5
2017-07-06T02:59:59.235Z,14.6
2017-07-06T03:00:19.513Z,14.5
2017-07-06T03:00:39.783Z,14.5
2017-07-06T03:01:00.085Z,14.4
2017-07-06T03:01:20.337Z,14.5
2017-07-06T03:01:40.646Z,14.4
2017-07-06T03:02:01.594Z,14.4
2017-07-06T03:02:21.911Z,14.5
2017-07-06T03:02:42.174Z,14.5
2017-07-06T03:03:03.228Z,14.4
2017-07-06T03:03:23.575Z,14.5
2017-07-06T03:03:44.699Z,14.4
2017-07-06T03:04:04.967Z,14.5
2017-07-06T03:04:25.298Z,14.4
2017-07-06T03:04:45.557Z,14.4
2017-07-06T03:05:05.903Z,14.4
2017-07-06T03:05:26.209Z,14.5
2017-07-06T03:05:46.550Z,14.4
2017-07-06T03:06:07.704Z,14.4
2017-07-06T03:06:27.972Z,14.3
2017-07-06T03:06:48.241Z,14.4
2017-07-06T03:07:08.596Z,14.4
2017-07-06T03:07:28.892Z,14.4
2017-07-06T03:07:49.145Z,14.4
2017-07-06T03:08:09.428Z,14.4
2017-07-06T03:08:29.730Z,14.4
2017-07-06T03:08:50.055Z,14.3
2017-07-06T03:09:10.436Z,14.4
2017-07-06T03:09:30.702Z,14.3
2017-07-06T03:09:51.037Z,14.3
2017-07-06T03:10:12.159Z,14.3
2017-07-06T03:10:32.437Z,14.3
2017-07-06T03:10:52.707Z,14.4
2017-07-06T03:11:12.977Z,14.3
2017-07-06T03:11:33.249Z,14.3
2017-07-06T03:11:53.575Z,14.3
2017-07-06T03:12:13.899Z,14.3
2017-07-06T03:12:35.119Z,14.4
2017-07-06T03:12:55.443Z,14.4
2017-07-06T03:13:15.759Z,14.3
2017-07-06T03:13:36.048Z,14.4
2017-07-06T03:13:56.367Z,14.4
2017-07-06T03:14:16.725Z,14.4
2017-07-06T03:14:37.049Z,14.3
2017-07-06T03:14:57.306Z,14.4
2017-07-06T03:15:17.615Z,14.4
2017-07-06T03:15:37.887Z,14.4
2017-07-06T03:15:58.148Z,14.4
2017-07-06T03:16:18.431Z,14.4
2017-07-06T03:16:38.701Z,14.4
2017-07-06T03:16:59.051Z,14.4
2017-07-06T03:17:20.157Z,14.4
2017-07-06T03:17:40.741Z,14.4
2017-07-06T03:18:01.417Z,14.4
2017-07-06T03:18:21.786Z,14.3
2017-07-06T03:18:42.049Z,14.4
2017-07-06T03:19:02.452Z,14.4
2017-07-06T03:19:22.760Z,14.3
2017-07-06T03:19:43.016Z,14.3
2017-07-06T03:20:03.376Z,14.3
2017-07-06T03:20:23.643Z,14.4
2017-07-06T03:20:43.963Z,14.3
2017-07-06T03:21:04.302Z,14.3
2017-07-06T03:21:24.629Z,14.3
2017-07-06T03:21:44.979Z,14.4
2017-07-06T03:22:05.349Z,14.4
2017-07-06T03:22:25.697Z,14.3
2017-07-06T03:22:46.010Z,14.3
2017-07-06T03:23:06.304Z,14.3
2017-07-06T03:23:26.624Z,14.3
2017-07-06T03:23:46.910Z,14.4
2017-07-06T03:24:07.190Z,14.3
2017-07-06T03:24:27.511Z,14.4
2017-07-06T03:24:47.794Z,14.3
2017-07-06T03:25:08.051Z,14.3
2017-07-06T03:25:28.306Z,14.3
2017-07-06T03:25:48.573Z,14.3
2017-07-06T03:26:08.931Z,14.3
2017-07-06T03:26:29.207Z,14.3
2017-07-06T03:26:49.513Z,14.3
2017-07-06T03:27:09.810Z,14.4
2017-07-06T03:27:30.086Z,14.4
2017-07-06T03:27:50.355Z,14.4
2017-07-06T03:28:10.672Z,14.4
2017-07-06T03:28:30.937Z,14.4
2017-07-06T03:28:52.166Z,14.4
2017-07-06T03:29:12.442Z,14.4
2017-07-06T03:29:32.744Z,14.3
2017-07-06T03:29:53.697Z,14.4
2017-07-06T03:30:14.061Z,14.4
2017-07-06T03:30:34.333Z,14.4
2017-07-06T03:30:54.605Z,14.4
2017-07-06T03:31:14.864Z,14.4
2017-07-06T03:31:35.254Z,14.4
2017-07-06T03:31:55.596Z,14.4
2017-07-06T03:32:15.892Z,14.4
2017-07-06T03:32:36.149Z,14.4
2017-07-06T03:32:56.468Z,14.4
2017-07-06T03:33:16.521Z,14.4
2017-07-06T03:33:36.797Z,14.4
2017-07-06T03:33:57.109Z,14.4
2017-07-06T03:34:17.399Z,14.3
2017-07-06T03:34:37.807Z,14.4
2017-07-06T03:34:58.069Z,14.4
2017-07-06T03:35:18.394Z,14.4
2017-07-06T03:35:38.668Z,14.4
2017-07-06T03:35:58.992Z,14.4
2017-07-06T03:36:20.241Z,14.4
2017-07-06T03:36:40.517Z,14.3
2017-07-06T03:37:00.797Z,14.4
2017-07-06T03:37:21.299Z,14.5
2017-07-06T03:37:41.620Z,14.4
2017-07-06T03:38:02.709Z,14.5
2017-07-06T03:38:23.655Z,14.4
2017-07-06T03:38:43.931Z,14.5
2017-07-06T03:39:04.251Z,14.5
2017-07-06T03:39:24.523Z,14.6
2017-07-06T03:39:44.811Z,14.5
2017-07-06T03:40:05.097Z,14.6
2017-07-06T03:40:25.413Z,14.6
2017-07-06T03:40:46.198Z,14.6
2017-07-06T03:41:06.555Z,14.6
2017-07-06T03:41:26.817Z,14.5
2017-07-06T03:41:46.803Z,14.6
2017-07-06T03:42:07.157Z,14.5
2017-07-06T03:42:27.425Z,14.6
2017-07-06T03:42:47.702Z,14.6
2017-07-06T03:43:07.962Z,14.7
2017-07-06T03:43:28.317Z,14.6
2017-07-06T03:43:48.637Z,14.6
2017-07-06T03:44:08.960Z,14.5
2017-07-06T03:44:29.332Z,14.6
2017-07-06T03:44:49.653Z,14.6
2017-07-06T03:45:09.927Z,14.6
2017-07-06T03:45:31.089Z,14.6
2017-07-06T03:45:51.338Z,14.5
2017-07-06T03:46:11.655Z,14.6
2017-07-06T03:46:31.916Z,14.6
2017-07-06T03:46:52.227Z,14.6
2017-07-06T03:47:12.536Z,14.6
2017-07-06T03:47:32.845Z,14.6
2017-07-06T03:47:52.841Z,14.6
2017-07-06T03:48:13.114Z,14.6
2017-07-06T03:48:33.375Z,14.5
2017-07-06T03:48:53.648Z,14.6
2017-07-06T03:49:13.911Z,14.6
2017-07-06T03:49:34.174Z,14.6
2017-07-06T03:49:54.495Z,14.6
2017-07-06T03:50:14.801Z,14.5
2017-07-06T03:50:35.113Z,14.5
2017-07-06T03:50:55.470Z,14.5
2017-07-06T03:51:16.722Z,14.5
2017-07-06T03:51:37.033Z,14.5
2017-07-06T03:51:57.345Z,14.5
2017-07-06T03:52:17.626Z,14.5
2017-07-06T03:52:37.892Z,14.5
2017-07-06T03:52:58.188Z,14.5
2017-07-06T03:53:18.494Z,14.5
2017-07-06T03:53:38.752Z,14.5
2017-07-06T03:53:59.057Z,14.5
2017-07-06T03:54:19.366Z,14.4
2017-07-06T03:54:39.635Z,14.4
2017-07-06T03:55:00.004Z,14.5
2017-07-06T03:55:20.291Z,14.6
2017-07-06T03:55:40.612Z,14.5
2017-07-06T03:56:00.912Z,14.5
2017-07-06T03:56:21.186Z,14.4
2017-07-06T03:56:42.213Z,14.4
2017-07-06T03:57:02.586Z,14.5
2017-07-06T03:57:22.845Z,14.5
2017-07-06T03:57:43.113Z,14.5
2017-07-06T03:58:03.448Z,14.5
2017-07-06T03:58:23.777Z,14.6
2017-07-06T03:58:44.083Z,14.5
2017-07-06T03:59:05.178Z,14.5
2017-07-06T03:59:25.490Z,14.5
2017-07-06T03:59:45.803Z,14.5
2017-07-06T04:00:06.072Z,14.5
2017-07-06T04:00:26.382Z,14.5
2017-07-06T04:00:46.706Z,14.5
2017-07-06T04:01:07.106Z,14.6
2017-07-06T04:01:28.213Z,14.6
2017-07-06T04:01:48.597Z,14.6
2017-07-06T04:02:08.872Z,14.6
2017-07-06T04:02:30.063Z,14.6
2017-07-06T04:02:50.373Z,14.6
2017-07-06T04:03:10.738Z,14.6
2017-07-06T04:03:31.055Z,14.6
2017-07-06T04:03:51.337Z,14.6
2017-07-06T04:04:11.629Z,14.6
2017-07-06T04:04:31.958Z,14.6
2017-07-06T04:04:52.265Z,14.7
2017-07-06T04:05:12.533Z,14.7
2017-07-06T04:05:32.809Z,14.6
2017-07-06T04:05:54.062Z,14.7
2017-07-06T04:06:14.330Z,14.6
2017-07-06T04:06:34.652Z,14.7
2017-07-06T04:06:54.969Z,14.7
2017-07-06T04:07:15.330Z,14.6
2017-07-06T04:07:35.628Z,14.7
2017-07-06T04:07:56.781Z,14.7
2017-07-06T04:08:17.131Z,14.7
2017-07-06T04:08:37.383Z,14.8
2017-07-06T04:08:57.689Z,14.7
2017-07-06T04:09:18.006Z,14.7
2017-07-06T04:09:38.327Z,14.7
2017-07-06T04:09:58.602Z,14.8
2017-07-06T04:10:18.877Z,14.8
2017-07-06T04:10:39.148Z,14.7
2017-07-06T04:10:59.454Z,14.8
2017-07-06T04:11:20.736Z,14.8
2017-07-06T04:11:40.994Z,14.8
2017-07-06T04:12:01.308Z,14.8
2017-07-06T04:12:21.579Z,14.9
2017-07-06T04:12:41.873Z,14.9
2017-07-06T04:13:01.891Z,14.8
2017-07-06T04:13:22.193Z,14.9
2017-07-06T04:13:42.496Z,14.9
2017-07-06T04:14:02.759Z,14.8
2017-07-06T04:14:23.013Z,14.8
2017-07-06T04:14:43.320Z,14.8
2017-07-06T04:15:03.596Z,14.9
2017-07-06T04:15:23.902Z,14.9
2017-07-06T04:15:44.205Z,14.9
2017-07-06T04:16:05.228Z,14.8
2017-07-06T04:16:25.507Z,14.9
2017-07-06T04:16:45.872Z,14.9
2017-07-06T04:17:06.137Z,14.9
2017-07-06T04:17:26.435Z,14.8
2017-07-06T04:17:46.713Z,14.9
2017-07-06T04:18:06.980Z,14.8
2017-07-06T04:18:27.249Z,14.9
2017-07-06T04:18:47.514Z,14.9
2017-07-06T04:19:07.796Z,14.9
2017-07-06T04:19:28.158Z,14.9
2017-07-06T04:19:48.420Z,14.9
2017-07-06T04:20:08.688Z,15
2017-07-06T04:20:29.012Z,15
2017-07-06T04:20:49.365Z,15
2017-07-06T04:21:09.676Z,15
2017-07-06T04:21:29.939Z,14.9
2017-07-06T04:21:51.138Z,15.1
2017-07-06T04:22:11.392Z,15
2017-07-06T04:22:31.787Z,15.1
2017-07-06T04:22:52.080Z,15.1
2017-07-06T04:23:12.392Z,15.2
2017-07-06T04:23:32.705Z,15.1
2017-07-06T04:23:53.698Z,15.1
2017-07-06T04:24:14.018Z,15.1
2017-07-06T04:24:34.306Z,15.2
2017-07-06T04:24:54.636Z,15.2
2017-07-06T04:25:14.911Z,15.2
2017-07-06T04:25:35.218Z,15.2
2017-07-06T04:25:55.485Z,15.3
2017-07-06T04:26:15.794Z,15.2
2017-07-06T04:26:36.111Z,15.1
2017-07-06T04:26:56.450Z,15.1
2017-07-06T04:27:16.824Z,15.3
2017-07-06T04:27:37.143Z,15.3
2017-07-06T04:27:57.450Z,15.3
2017-07-06T04:28:17.697Z,15.2
2017-07-06T04:28:37.960Z,15.3
2017-07-06T04:28:58.320Z,15.3
2017-07-06T04:29:18.638Z,15.3
2017-07-06T04:29:38.909Z,15.3
2017-07-06T04:29:58.946Z,15.3
2017-07-06T04:30:19.257Z,15.4
2017-07-06T04:30:39.525Z,15.3
2017-07-06T04:30:59.793Z,15.3
2017-07-06T04:31:20.161Z,15.3
2017-07-06T04:31:40.428Z,15.3
2017-07-06T04:32:00.699Z,15.3